Terminal Aerodrome Forecast
Issued by NWS

Home | Current Version | Previous Version | Text Only | Print | Product List | Glossary On
Versions: 1 2 3 4 5 6 7 8 9 10 11 12 13
572
FTUS45 KTFX 242320
TAFHVR
TAF
KHVR 242320Z 2500/2524 21010G18KT P6SM SCT250
     FM250200 21011KT P6SM BKN250
     FM251700 33018G26KT P6SM BKN060=

USA.gov is the U.S. government's official web portal to all federal, state and local government web resources and services.